Time;durP1;ratioP1;P1;durP2;ratioP2;P2;SDS_P1;SDS_P2;PMS_P1;PMS_P2;Temp;Humidity;BMP_temperature;BMP_pressure;BME280_temperature;BME280_humidity;BME280_pressure;Samples;Min_cycle;Max_cycle;Signal;HPM_P1;HPM_P2
2022/03/12 00:00:35;;;;;;;9.70;6.97;;;8.70;1.00;;;;;;5114050;28;20563;-62
2022/03/12 00:03:00;;;;;;;9.00;6.67;;;8.70;1.00;;;;;;5114333;28;20562;-61
2022/03/12 00:05:30;;;;;;;9.47;6.87;;;8.70;1.00;;;;;;5113462;28;20251;-62
2022/03/12 00:07:57;;;;;;;8.53;6.60;;;8.70;1.00;;;;;;5113297;28;20665;-62
2022/03/12 00:10:23;;;;;;;10.87;7.30;;;8.70;1.00;;;;;;5113278;28;20192;-62
2022/03/12 00:12:50;;;;;;;9.03;6.83;;;8.70;1.00;;;;;;5113543;28;20204;-62
2022/03/12 00:15:16;;;;;;;11.10;7.13;;;8.70;1.00;;;;;;5113272;28;20164;-62
2022/03/12 00:17:46;;;;;;;9.00;7.33;;;8.70;1.00;;;;;;5113324;28;20172;-62
2022/03/12 00:20:19;;;;;;;13.17;7.30;;;8.60;1.00;;;;;;5116613;28;20196;-62
2022/03/12 00:22:48;;;;;;;11.93;7.07;;;8.60;1.00;;;;;;5116956;28;20198;-62
2022/03/12 00:25:18;;;;;;;11.10;6.83;;;8.60;1.00;;;;;;5116886;28;20169;-62
2022/03/12 00:27:44;;;;;;;10.20;6.80;;;8.60;1.00;;;;;;5116885;28;20175;-62
2022/03/12 00:30:10;;;;;;;11.30;6.87;;;8.60;1.00;;;;;;5116767;28;20233;-62
2022/03/12 00:32:37;;;;;;;10.33;7.20;;;8.60;1.00;;;;;;5117250;28;20175;-62
2022/03/12 00:35:04;;;;;;;9.07;7.10;;;8.60;1.00;;;;;;5115489;28;20543;-62
2022/03/12 00:37:30;;;;;;;9.17;6.97;;;8.60;1.00;;;;;;5116628;28;20217;-61
2022/03/12 00:39:57;;;;;;;8.30;6.47;;;8.50;1.00;;;;;;5116535;28;20369;-62
2022/03/12 00:42:23;;;;;;;10.70;7.50;;;8.50;1.00;;;;;;5115381;28;20321;-62
2022/03/12 00:44:49;;;;;;;10.27;7.37;;;8.50;1.00;;;;;;5116533;28;20244;-62
2022/03/12 00:47:14;;;;;;;8.90;7.07;;;8.50;1.00;;;;;;5117117;28;20169;-62
2022/03/12 00:49:40;;;;;;;8.83;6.60;;;8.50;1.00;;;;;;5116450;28;20284;-63
2022/03/12 00:52:06;;;;;;;9.43;7.20;;;8.40;1.00;;;;;;5116476;28;20302;-62
2022/03/12 00:54:32;;;;;;;8.70;7.13;;;8.40;1.00;;;;;;5116550;28;20180;-62
2022/03/12 00:56:58;;;;;;;12.00;7.40;;;8.40;1.00;;;;;;5116608;28;20169;-62
2022/03/12 00:59:24;;;;;;;10.13;7.07;;;8.40;1.00;;;;;;5116351;27;20298;-63
2022/03/12 01:01:50;;;;;;;9.63;7.60;;;8.50;1.00;;;;;;5116594;28;20191;-63
2022/03/12 01:04:16;;;;;;;9.23;6.77;;;8.50;1.00;;;;;;5116186;28;20161;-63
2022/03/12 01:06:42;;;;;;;9.33;6.70;;;8.50;1.00;;;;;;5116044;28;20671;-63
2022/03/12 01:09:10;;;;;;;11.47;6.93;;;8.50;1.00;;;;;;5115835;28;20278;-62
2022/03/12 01:11:38;;;;;;;11.80;7.40;;;8.50;1.00;;;;;;5114734;28;20181;-63
2022/03/12 01:14:06;;;;;;;10.70;7.30;;;8.50;1.00;;;;;;5116148;28;20239;-63
2022/03/12 01:16:32;;;;;;;9.90;7.20;;;8.50;1.00;;;;;;5116421;28;20187;-63
2022/03/12 01:18:58;;;;;;;12.07;7.53;;;8.50;1.00;;;;;;5115673;28;20185;-62
2022/03/12 01:21:24;;;;;;;13.57;6.97;;;8.50;1.00;;;;;;5114460;28;20542;-63
2022/03/12 01:23:51;;;;;;;10.00;7.00;;;8.50;1.00;;;;;;5115683;28;20218;-63
2022/03/12 01:26:18;;;;;;;9.67;6.93;;;8.50;1.00;;;;;;5116049;28;20233;-63
2022/03/12 01:28:45;;;;;;;9.03;7.00;;;8.50;1.00;;;;;;5115881;28;20239;-63
2022/03/12 01:31:11;;;;;;;8.30;6.83;;;8.50;1.00;;;;;;5115580;28;20730;-63
2022/03/12 01:33:38;;;;;;;12.20;7.10;;;8.50;1.00;;;;;;5116268;28;20173;-62
2022/03/12 01:36:04;;;;;;;10.87;7.07;;;8.50;1.00;;;;;;5115739;28;20172;-62
2022/03/12 01:38:35;;;;;;;9.53;6.60;;;8.50;1.00;;;;;;5114067;28;20200;-63
2022/03/12 01:41:03;;;;;;;9.30;6.60;;;8.50;1.00;;;;;;5115661;28;20547;-62
2022/03/12 01:43:36;;;;;;;9.77;6.93;;;8.40;1.00;;;;;;5115338;28;20210;-63
2022/03/12 01:46:02;;;;;;;10.33;6.70;;;8.40;1.00;;;;;;5115599;28;20152;-63
2022/03/12 01:48:31;;;;;;;8.93;6.70;;;8.40;1.00;;;;;;5115099;28;20216;-62
2022/03/12 01:50:58;;;;;;;9.53;7.00;;;8.40;1.00;;;;;;5115174;28;20321;-62
2022/03/12 01:53:28;;;;;;;11.53;7.47;;;8.40;1.00;;;;;;5115134;28;20672;-62
2022/03/12 01:55:55;;;;;;;8.67;6.87;;;8.40;1.00;;;;;;5115626;27;20248;-63
2022/03/12 01:58:21;;;;;;;11.87;7.63;;;8.30;1.00;;;;;;5115272;28;20180;-62
2022/03/12 02:00:49;;;;;;;9.43;7.33;;;8.30;1.00;;;;;;5114886;28;20203;-62
2022/03/12 02:03:17;;;;;;;11.47;6.83;;;8.30;1.00;;;;;;5114879;28;20251;-64
2022/03/12 02:05:43;;;;;;;12.03;7.73;;;8.30;1.00;;;;;;5115108;28;20225;-63
2022/03/12 02:08:14;;;;;;;10.30;7.20;;;8.20;1.00;;;;;;5114880;28;20180;-63
2022/03/12 02:10:41;;;;;;;9.27;7.13;;;8.20;1.00;;;;;;5114738;28;20260;-62
2022/03/12 02:13:07;;;;;;;9.77;7.20;;;8.20;1.00;;;;;;5114746;28;20180;-63
2022/03/12 02:15:34;;;;;;;10.43;7.73;;;8.20;1.00;;;;;;5114662;28;20188;-62
2022/03/12 02:17:59;;;;;;;8.83;7.10;;;8.20;1.00;;;;;;5114612;28;20540;-62
2022/03/12 02:20:25;;;;;;;11.23;7.73;;;8.10;1.00;;;;;;5114378;28;20200;-63
2022/03/12 02:22:54;;;;;;;12.43;7.57;;;8.10;1.00;;;;;;5114733;28;20537;-63
2022/03/12 02:25:31;;;;;;;15.13;7.60;;;8.10;1.00;;;;;;5114842;28;20152;-62
2022/03/12 02:27:59;;;;;;;10.57;7.13;;;8.10;1.00;;;;;;5114459;28;20209;-62
2022/03/12 02:30:33;;;;;;;10.20;7.60;;;8.10;1.00;;;;;;5114356;28;20668;-65
2022/03/12 02:33:01;;;;;;;10.70;7.63;;;8.10;1.00;;;;;;5114610;28;20164;-62
2022/03/12 02:35:30;;;;;;;10.57;7.60;;;8.20;1.00;;;;;;5114376;28;20172;-62
2022/03/12 02:37:57;;;;;;;8.10;6.73;;;8.10;1.00;;;;;;5112963;28;20274;-63
2022/03/12 02:40:22;;;;;;;10.70;7.87;;;8.10;1.00;;;;;;5114095;28;20245;-64
2022/03/12 02:42:50;;;;;;;10.73;7.33;;;8.10;1.00;;;;;;5113535;28;20176;-63
2022/03/12 02:45:15;;;;;;;16.07;8.03;;;8.10;1.00;;;;;;5114145;28;20164;-62
2022/03/12 02:47:43;;;;;;;13.13;7.93;;;8.10;1.00;;;;;;5114353;28;20691;-63
2022/03/12 02:50:11;;;;;;;12.17;7.80;;;8.10;1.00;;;;;;5113962;28;20192;-63
2022/03/12 02:52:41;;;;;;;9.83;7.60;;;8.10;1.00;;;;;;5114064;28;20567;-63
2022/03/12 02:55:13;;;;;;;10.07;7.73;;;8.10;1.00;;;;;;5114356;28;20183;-63
2022/03/12 02:57:40;;;;;;;13.73;8.33;;;8.10;1.00;;;;;;5113963;28;20164;-62
2022/03/12 03:00:08;;;;;;;9.97;7.73;;;8.10;1.00;;;;;;5113830;28;20198;-63
2022/03/12 03:02:41;;;;;;;12.87;7.40;;;8.10;1.00;;;;;;5112618;28;20175;-63
2022/03/12 03:05:44;;;;;;;11.77;7.80;;;8.10;1.00;;;;;;5113927;28;20160;-63
2022/03/12 03:08:09;;;;;;;11.80;7.60;;;8.10;1.00;;;;;;5113479;28;20188;-63
2022/03/12 03:10:37;;;;;;;11.33;7.83;;;8.10;1.00;;;;;;5113868;28;20172;-64
2022/03/12 03:13:20;;;;;;;9.53;7.03;;;8.10;1.00;;;;;;5114082;28;20208;-63
2022/03/12 03:15:59;;;;;;;10.40;8.00;;;8.10;1.00;;;;;;5113812;28;20550;-63
2022/03/12 03:18:31;;;;;;;9.03;7.03;;;8.10;1.00;;;;;;5113900;28;20645;-63
2022/03/12 03:20:58;;;;;;;10.77;7.30;;;8.20;1.00;;;;;;5114217;28;20287;-63
2022/03/12 03:23:26;;;;;;;10.03;7.70;;;8.20;1.00;;;;;;5113980;28;20526;-63
2022/03/12 03:25:52;;;;;;;11.27;7.67;;;8.20;1.00;;;;;;5112393;28;20177;-63
2022/03/12 03:28:18;;;;;;;10.30;7.97;;;8.20;1.00;;;;;;5113788;28;20164;-63
2022/03/12 03:30:44;;;;;;;11.50;8.03;;;8.20;1.00;;;;;;5113618;28;20177;-62
2022/03/12 03:33:13;;;;;;;11.67;7.70;;;8.20;1.00;;;;;;5112364;28;20176;-63
2022/03/12 03:35:39;;;;;;;11.10;7.63;;;8.30;1.00;;;;;;5113812;28;20218;-62
2022/03/12 03:38:09;;;;;;;10.60;7.87;;;8.30;1.00;;;;;;5113538;28;20213;-62
2022/03/12 03:40:36;;;;;;;11.63;8.07;;;8.30;1.00;;;;;;5113789;28;20215;-62
2022/03/12 03:43:02;;;;;;;11.63;7.67;;;8.30;1.00;;;;;;5113741;28;20164;-62
2022/03/12 03:45:30;;;;;;;11.47;7.57;;;8.20;1.00;;;;;;5113476;28;20173;-62
2022/03/12 03:47:56;;;;;;;13.33;8.13;;;8.30;1.00;;;;;;5113439;28;20177;-62
2022/03/12 03:50:25;;;;;;;11.33;8.20;;;8.20;1.00;;;;;;5113387;28;20199;-62
2022/03/12 03:53:03;;;;;;;10.77;7.93;;;8.30;1.00;;;;;;5114604;28;20642;-63
2022/03/12 03:55:33;;;;;;;12.67;8.17;;;8.30;1.00;;;;;;5117780;28;20187;-63
2022/03/12 03:57:59;;;;;;;11.57;7.63;;;8.30;1.00;;;;;;5116137;28;20615;-63
2022/03/12 04:00:26;;;;;;;14.90;8.23;;;8.30;1.00;;;;;;5117195;28;20211;-63
2022/03/12 04:03:01;;;;;;;12.53;8.03;;;8.20;1.00;;;;;;5117367;28;20251;-64
2022/03/12 04:05:27;;;;;;;11.33;7.67;;;8.10;1.00;;;;;;5117799;28;20164;-63
2022/03/12 04:07:53;;;;;;;12.43;8.80;;;8.10;1.00;;;;;;5117294;28;20168;-63
2022/03/12 04:10:19;;;;;;;12.37;8.20;;;8.10;1.00;;;;;;5117160;28;20688;-64
2022/03/12 04:12:45;;;;;;;13.57;8.53;;;8.10;1.00;;;;;;5117181;28;20721;-63
2022/03/12 04:15:11;;;;;;;13.47;8.37;;;8.00;1.00;;;;;;5117067;28;20168;-64
2022/03/12 04:17:37;;;;;;;11.23;7.83;;;7.90;1.00;;;;;;5117025;28;20211;-63
2022/03/12 04:20:04;;;;;;;12.20;8.47;;;7.90;1.00;;;;;;5117075;28;20232;-63
2022/03/12 04:22:31;;;;;;;11.83;8.47;;;8.00;1.00;;;;;;5116913;28;20184;-63
2022/03/12 04:24:57;;;;;;;12.77;8.73;;;8.00;1.00;;;;;;5115643;28;20535;-63
2022/03/12 04:27:23;;;;;;;13.27;8.23;;;7.90;1.00;;;;;;5117105;28;20172;-62
2022/03/12 04:29:50;;;;;;;12.33;7.87;;;8.00;1.00;;;;;;5116957;28;20188;-62
2022/03/12 04:32:16;;;;;;;10.63;7.80;;;8.00;1.00;;;;;;5117222;28;20187;-63
2022/03/12 04:34:42;;;;;;;11.07;8.00;;;7.90;1.00;;;;;;5116654;28;20233;-63
2022/03/12 04:37:08;;;;;;;13.77;8.60;;;7.90;1.00;;;;;;5116889;28;20567;-63
2022/03/12 04:39:34;;;;;;;10.17;7.70;;;7.90;1.00;;;;;;5116635;28;20211;-63
2022/03/12 04:42:00;;;;;;;16.97;8.67;;;7.80;1.00;;;;;;5116514;28;20173;-63
2022/03/12 04:44:26;;;;;;;17.17;8.63;;;7.90;1.00;;;;;;5116478;28;20180;-63
2022/03/12 04:46:52;;;;;;;13.10;9.17;;;7.90;1.00;;;;;;5115124;28;20542;-63
2022/03/12 04:49:19;;;;;;;13.10;8.43;;;7.90;1.00;;;;;;5116309;28;20245;-63
2022/03/12 04:51:44;;;;;;;11.17;8.43;;;7.80;1.00;;;;;;5116600;28;20521;-63
2022/03/12 04:54:10;;;;;;;13.30;8.73;;;7.90;1.00;;;;;;5116369;27;20218;-63
2022/03/12 04:56:36;;;;;;;13.10;8.30;;;7.80;1.00;;;;;;5116217;28;20172;-63
2022/03/12 04:59:02;;;;;;;12.00;8.90;;;7.80;1.00;;;;;;5116165;28;20215;-63
2022/03/12 05:01:28;;;;;;;12.73;8.87;;;7.80;1.00;;;;;;5116240;28;20682;-63
2022/03/12 05:03:54;;;;;;;12.30;8.07;;;7.80;1.00;;;;;;5116306;28;20176;-62
2022/03/12 05:06:22;;;;;;;13.13;9.17;;;7.80;1.00;;;;;;5117191;28;20759;-62
2022/03/12 05:08:47;;;;;;;11.40;8.07;;;7.90;1.00;;;;;;5117053;28;20204;-62
2022/03/12 05:11:13;;;;;;;11.97;8.80;;;7.90;1.00;;;;;;5114949;28;20176;-63
2022/03/12 05:13:40;;;;;;;13.10;8.43;;;7.90;1.00;;;;;;5116207;28;20199;-62
2022/03/12 05:16:06;;;;;;;12.27;8.63;;;7.90;1.00;;;;;;5115899;28;20177;-62
2022/03/12 05:18:40;;;;;;;13.53;8.90;;;7.90;1.00;;;;;;5115761;28;20200;-63
2022/03/12 05:21:06;;;;;;;11.30;8.60;;;7.80;1.00;;;;;;5116062;28;20192;-62
2022/03/12 05:23:33;;;;;;;13.00;8.60;;;7.80;1.00;;;;;;5116015;28;20537;-63
2022/03/12 05:25:59;;;;;;;12.27;8.30;;;7.80;1.00;;;;;;5116062;28;20172;-63
2022/03/12 05:28:31;;;;;;;11.03;8.90;;;7.70;1.00;;;;;;5115739;28;20182;-62
2022/03/12 05:30:59;;;;;;;12.47;8.27;;;7.80;1.00;;;;;;5115953;28;20170;-64
2022/03/12 05:33:26;;;;;;;11.43;8.43;;;7.80;1.00;;;;;;5114306;28;20592;-62
2022/03/12 05:35:53;;;;;;;12.13;9.23;;;7.80;1.00;;;;;;5115862;28;20177;-63
2022/03/12 05:38:20;;;;;;;12.60;8.57;;;7.80;1.00;;;;;;5115691;28;20176;-63
2022/03/12 05:40:48;;;;;;;14.27;9.03;;;7.70;1.00;;;;;;5115584;28;20680;-62
2022/03/12 05:43:17;;;;;;;10.10;8.20;;;7.70;1.00;;;;;;5114117;28;20619;-62
2022/03/12 05:45:48;;;;;;;12.00;8.83;;;7.70;1.00;;;;;;5114044;28;20184;-63
2022/03/12 05:48:16;;;;;;;12.07;8.97;;;7.60;1.00;;;;;;5115798;28;20668;-62
2022/03/12 05:50:44;;;;;;;11.97;8.73;;;7.60;1.00;;;;;;5114354;28;20176;-63
2022/03/12 05:53:10;;;;;;;14.10;8.57;;;7.60;1.00;;;;;;5115979;28;20176;-63
2022/03/12 05:55:41;;;;;;;15.07;9.10;;;7.60;1.00;;;;;;5115158;28;20695;-63
2022/03/12 05:58:08;;;;;;;15.77;8.83;;;7.50;1.00;;;;;;5115353;28;20190;-62
2022/03/12 06:00:34;;;;;;;16.67;8.60;;;7.50;1.00;;;;;;5114809;28;20201;-63
2022/03/12 06:03:01;;;;;;;10.47;8.37;;;7.50;1.00;;;;;;5115333;28;20204;-63
2022/03/12 06:05:27;;;;;;;12.60;8.73;;;7.50;1.00;;;;;;5113712;28;20188;-63
2022/03/12 06:07:54;;;;;;;12.70;8.80;;;7.40;1.00;;;;;;5114914;28;20187;-62
2022/03/12 06:10:24;;;;;;;11.70;8.83;;;7.30;1.00;;;;;;5114822;28;20249;-63
2022/03/12 06:12:53;;;;;;;12.03;8.03;;;7.30;1.00;;;;;;5115188;27;20165;-63
2022/03/12 06:15:22;;;;;;;11.50;8.93;;;7.30;1.00;;;;;;5114692;28;20239;-62
2022/03/12 06:17:49;;;;;;;12.87;8.37;;;7.30;1.00;;;;;;5112619;28;20234;-63
2022/03/12 06:20:16;;;;;;;12.53;8.87;;;7.30;1.00;;;;;;5114796;28;20260;-62
2022/03/12 06:22:43;;;;;;;11.23;7.80;;;7.40;1.00;;;;;;5114926;27;20264;-63
2022/03/12 06:25:12;;;;;;;13.03;8.33;;;7.40;1.00;;;;;;5114619;27;20305;-63
2022/03/12 06:27:38;;;;;;;12.80;8.90;;;7.50;1.00;;;;;;5114541;28;20255;-62
2022/03/12 06:30:08;;;;;;;11.23;8.80;;;7.40;1.00;;;;;;5114712;28;20234;-63
2022/03/12 06:32:38;;;;;;;11.60;8.57;;;7.40;1.00;;;;;;5114513;28;20184;-63
2022/03/12 06:35:05;;;;;;;12.13;8.40;;;7.50;1.00;;;;;;5115297;28;20173;-64
2022/03/12 06:37:32;;;;;;;13.23;9.53;;;7.50;1.00;;;;;;5113503;28;20265;-63
2022/03/12 06:39:59;;;;;;;12.03;8.33;;;7.50;1.00;;;;;;5114287;28;20204;-63
2022/03/12 06:42:25;;;;;;;11.17;8.43;;;7.50;1.00;;;;;;5112930;28;20187;-62
2022/03/12 06:44:54;;;;;;;10.70;8.37;;;7.50;1.00;;;;;;5112925;28;20180;-62
2022/03/12 06:47:20;;;;;;;12.33;8.27;;;7.60;1.00;;;;;;5112939;28;20171;-63
2022/03/12 06:49:46;;;;;;;13.43;9.03;;;7.60;1.00;;;;;;5114138;28;20200;-63
2022/03/12 06:52:12;;;;;;;11.50;7.83;;;7.60;1.00;;;;;;5114146;28;20695;-62
2022/03/12 06:54:38;;;;;;;13.07;8.30;;;7.70;1.00;;;;;;5112758;28;20181;-65
2022/03/12 06:57:04;;;;;;;11.00;8.23;;;7.70;1.00;;;;;;5114014;28;20229;-63
2022/03/12 06:59:31;;;;;;;11.07;8.50;;;7.70;1.00;;;;;;5114017;28;20201;-65
2022/03/12 07:01:57;;;;;;;11.23;7.80;;;7.80;1.00;;;;;;5112587;28;20630;-65
2022/03/12 07:04:22;;;;;;;10.90;8.50;;;7.80;1.00;;;;;;5113939;28;20176;-63
2022/03/12 07:06:51;;;;;;;11.57;7.77;;;7.80;1.00;;;;;;5114029;28;20177;-63
2022/03/12 07:09:17;;;;;;;12.13;8.40;;;7.90;1.00;;;;;;5113720;28;20212;-61
2022/03/12 07:11:43;;;;;;;11.20;8.13;;;7.80;1.00;;;;;;5114837;28;20187;-63
2022/03/12 07:14:10;;;;;;;11.27;8.03;;;7.80;1.00;;;;;;5113022;28;20188;-63
2022/03/12 07:16:36;;;;;;;11.33;8.57;;;7.80;1.00;;;;;;5114150;28;20167;-62
2022/03/12 07:19:03;;;;;;;10.37;8.47;;;7.80;1.00;;;;;;5114688;28;20244;-62
2022/03/12 07:21:29;;;;;;;10.57;8.53;;;7.80;1.00;;;;;;5114305;28;20238;-63
2022/03/12 07:23:56;;;;;;;13.93;8.37;;;7.70;1.00;;;;;;5114814;28;20173;-63
2022/03/12 07:26:22;;;;;;;10.73;8.23;;;7.80;1.00;;;;;;5114595;28;20183;-62
2022/03/12 07:28:49;;;;;;;11.60;8.00;;;7.90;1.00;;;;;;5117819;28;20200;-61
2022/03/12 07:31:16;;;;;;;9.57;8.00;;;7.90;1.00;;;;;;5117845;28;20176;-62
2022/03/12 07:33:42;;;;;;;10.83;7.90;;;8.00;1.00;;;;;;5117867;28;20176;-62
2022/03/12 07:36:09;;;;;;;10.97;8.10;;;8.00;1.00;;;;;;5118154;28;20211;-63
2022/03/12 07:38:35;;;;;;;14.93;8.33;;;8.20;1.00;;;;;;5118049;28;20353;-63
2022/03/12 07:41:00;;;;;;;10.37;7.90;;;8.20;1.00;;;;;;5118034;28;20701;-63
2022/03/12 07:43:26;;;;;;;11.17;8.30;;;8.20;1.00;;;;;;5118021;28;20173;-63
2022/03/12 07:45:52;;;;;;;11.30;8.30;;;8.30;1.00;;;;;;5116504;28;20220;-64
2022/03/12 07:48:18;;;;;;;14.60;8.50;;;8.30;1.00;;;;;;5117920;28;20730;-63
2022/03/12 07:50:44;;;;;;;10.47;7.70;;;8.40;1.00;;;;;;5116416;28;20184;-63
2022/03/12 07:53:12;;;;;;;13.13;8.23;;;8.60;1.00;;;;;;5117985;28;20160;-63
2022/03/12 07:55:38;;;;;;;11.20;7.67;;;8.70;1.00;;;;;;5117542;28;20636;-63
2022/03/12 07:58:04;;;;;;;15.07;8.43;;;8.90;1.00;;;;;;5117417;28;20180;-63
2022/03/12 08:00:31;;;;;;;10.53;7.70;;;9.10;1.00;;;;;;5117781;28;20208;-63
2022/03/12 08:02:58;;;;;;;8.73;7.20;;;9.30;1.00;;;;;;5117272;28;20176;-63
2022/03/12 08:05:25;;;;;;;13.43;7.70;;;9.30;1.00;;;;;;5117943;28;20617;-63
2022/03/12 08:07:54;;;;;;;11.90;7.60;;;9.40;1.00;;;;;;5117659;28;20303;-66
2022/03/12 08:10:21;;;;;;;10.67;8.20;;;9.60;1.00;;;;;;5117159;28;20658;-63
2022/03/12 08:12:48;;;;;;;10.80;7.80;;;9.60;1.00;;;;;;5117380;28;20288;-63
2022/03/12 08:15:15;;;;;;;12.10;8.30;;;9.70;1.00;;;;;;5117008;28;20173;-63
2022/03/12 08:17:42;;;;;;;10.77;8.10;;;9.80;1.00;;;;;;5117294;28;20680;-63
2022/03/12 08:20:08;;;;;;;11.00;8.37;;;9.90;1.00;;;;;;5117112;28;20215;-63
2022/03/12 08:22:42;;;;;;;13.57;8.37;;;10.10;1.00;;;;;;5115610;28;20172;-63
2022/03/12 08:25:10;;;;;;;12.00;8.20;;;10.10;1.00;;;;;;5116757;28;20177;-63
2022/03/12 08:27:37;;;;;;;14.87;8.20;;;10.90;1.00;;;;;;5116643;28;20573;-63
2022/03/12 08:30:07;;;;;;;11.85;7.85;;;12.20;1.00;;;;;;5116698;28;20223;-63
2022/03/12 08:32:35;;;;;;;11.82;8.55;;;13.60;1.00;;;;;;5116636;28;20255;-69
2022/03/12 08:35:05;;;;;;;10.00;7.28;;;14.70;1.00;;;;;;5116610;28;20175;-67
2022/03/12 08:37:31;;;;;;;8.40;6.97;;;15.00;1.00;;;;;;5116494;28;20180;-67
2022/03/12 08:39:57;;;;;;;10.88;7.43;;;15.30;1.00;;;;;;5115349;28;20681;-62
2022/03/12 08:42:24;;;;;;;11.43;6.68;;;16.70;1.00;;;;;;5116420;28;20176;-62
2022/03/12 08:44:51;;;;;;;10.63;7.28;;;17.90;1.00;;;;;;5116689;28;20169;-61
2022/03/12 08:47:17;;;;;;;10.95;7.43;;;18.80;1.00;;;;;;5116669;28;20164;-62
2022/03/12 08:49:42;;;;;;;9.20;7.13;;;19.10;1.00;;;;;;5116339;27;20684;-62
2022/03/12 08:52:08;;;;;;;10.02;6.65;;;19.00;1.00;;;;;;5115055;28;20609;-62
2022/03/12 08:54:35;;;;;;;9.02;6.63;;;18.80;1.00;;;;;;5115045;28;20207;-62
2022/03/12 08:57:01;;;;;;;10.07;6.95;;;18.70;1.00;;;;;;5116543;28;20164;-62
2022/03/12 08:59:27;;;;;;;10.85;7.57;;;18.00;1.00;;;;;;5116987;27;20203;-62
2022/03/12 09:01:53;;;;;;;11.07;7.45;;;17.20;1.00;;;;;;5116740;28;20168;-62
2022/03/12 09:04:19;;;;;;;11.93;7.20;;;16.30;1.00;;;;;;5117141;28;20173;-62
2022/03/12 09:06:46;;;;;;;9.50;7.00;;;16.80;1.00;;;;;;5116410;28;20217;-63
2022/03/12 09:09:12;;;;;;;10.48;7.32;;;16.80;1.00;;;;;;5115977;27;20208;-62
2022/03/12 09:11:38;;;;;;;8.40;6.70;;;17.10;1.00;;;;;;5116496;28;20173;-62
2022/03/12 09:14:04;;;;;;;10.95;7.10;;;17.00;1.00;;;;;;5116308;28;20217;-63
2022/03/12 09:16:30;;;;;;;12.80;8.13;;;16.90;1.00;;;;;;5115999;28;20179;-62
2022/03/12 09:18:56;;;;;;;9.98;7.50;;;15.40;1.00;;;;;;5116171;28;20197;-63
2022/03/12 09:21:21;;;;;;;10.98;7.38;;;14.70;1.00;;;;;;5115974;28;20261;-63
2022/03/12 09:23:49;;;;;;;9.90;7.43;;;14.60;1.00;;;;;;5114505;28;20267;-63
2022/03/12 09:26:17;;;;;;;10.43;7.57;;;14.60;1.00;;;;;;5116006;28;20165;-62
2022/03/12 09:28:42;;;;;;;14.23;8.07;;;14.40;1.00;;;;;;5115593;28;20216;-62
2022/03/12 09:31:09;;;;;;;14.20;7.75;;;14.50;1.00;;;;;;5115972;28;20196;-64
2022/03/12 09:33:35;;;;;;;10.32;7.57;;;14.20;1.00;;;;;;5115608;28;20176;-63
2022/03/12 09:36:02;;;;;;;11.20;7.50;;;14.20;1.00;;;;;;5115576;28;20231;-63
2022/03/12 09:38:28;;;;;;;11.05;7.63;;;14.20;1.00;;;;;;5115626;28;20179;-62
2022/03/12 09:40:54;;;;;;;9.95;7.90;;;14.20;1.00;;;;;;5116143;28;20200;-64
2022/03/12 09:43:20;;;;;;;11.35;7.05;;;14.00;1.00;;;;;;5115744;28;20251;-65
2022/03/12 09:45:45;;;;;;;8.32;7.30;;;13.70;1.00;;;;;;5115572;28;20534;-63
2022/03/12 09:48:11;;;;;;;10.50;7.40;;;13.50;1.00;;;;;;5116046;28;20169;-64
2022/03/12 09:50:37;;;;;;;11.45;7.18;;;13.60;1.00;;;;;;5114847;28;20640;-62
2022/03/12 09:53:03;;;;;;;11.45;7.55;;;13.60;1.00;;;;;;5115408;28;20200;-64
2022/03/12 09:55:29;;;;;;;10.00;7.60;;;13.70;1.00;;;;;;5115647;28;20317;-62
2022/03/12 09:57:55;;;;;;;12.15;7.90;;;13.60;1.00;;;;;;5115529;28;20176;-62
2022/03/12 10:00:21;;;;;;;12.00;8.20;;;13.30;1.00;;;;;;5115551;28;20208;-62
2022/03/12 10:02:47;;;;;;;12.45;7.82;;;13.20;1.00;;;;;;5115954;28;20171;-62
2022/03/12 10:05:13;;;;;;;9.30;7.35;;;13.30;1.00;;;;;;5115519;28;20540;-62
2022/03/12 10:07:42;;;;;;;12.90;8.68;;;13.30;1.00;;;;;;5115464;28;20164;-62
2022/03/12 10:10:19;;;;;;;12.52;7.63;;;13.20;1.00;;;;;;5114929;28;20196;-62
2022/03/12 10:12:46;;;;;;;8.45;6.50;;;13.20;1.00;;;;;;5113633;28;20645;-62
2022/03/12 10:15:14;;;;;;;11.68;7.63;;;13.20;1.00;;;;;;5114933;27;20195;-61
2022/03/12 10:17:41;;;;;;;9.55;6.78;;;13.20;1.00;;;;;;5114922;28;20176;-62
2022/03/12 10:20:07;;;;;;;10.00;6.93;;;13.20;1.00;;;;;;5114631;28;20682;-61
2022/03/12 10:22:33;;;;;;;9.35;6.90;;;13.20;1.00;;;;;;5114832;28;20168;-61
2022/03/12 10:24:59;;;;;;;9.57;7.37;;;13.30;1.00;;;;;;5113158;28;20271;-61
2022/03/12 10:27:25;;;;;;;9.73;6.97;;;13.30;1.00;;;;;;5114434;28;20169;-62
2022/03/12 10:29:51;;;;;;;9.38;7.03;;;13.40;1.00;;;;;;5112975;28;20699;-61
2022/03/12 10:32:45;;;;;;;10.40;6.70;;;13.50;1.00;;;;;;5114357;28;20296;-61
2022/03/12 10:35:19;;;;;;;10.93;7.10;;;13.50;1.00;;;;;;5114729;28;20153;-62
2022/03/12 10:37:46;;;;;;;9.80;6.88;;;13.60;1.00;;;;;;5114655;28;20188;-61
2022/03/12 10:40:30;;;;;;;10.45;6.68;;;13.90;1.00;;;;;;5114827;28;20238;-62
2022/03/12 10:42:59;;;;;;;11.70;7.57;;;14.00;1.00;;;;;;5113284;28;20168;-61
2022/03/12 10:45:30;;;;;;;12.25;8.02;;;13.90;1.00;;;;;;5113183;28;20187;-61
2022/03/12 10:47:59;;;;;;;13.50;7.60;;;13.90;1.00;;;;;;5114890;28;20627;-61
2022/03/12 10:50:32;;;;;;;9.38;7.32;;;14.00;1.00;;;;;;5114166;28;20188;-62
2022/03/12 10:52:59;;;;;;;12.93;7.25;;;14.20;1.00;;;;;;5114367;28;20157;-62
2022/03/12 10:55:30;;;;;;;11.95;7.00;;;14.10;1.00;;;;;;5114173;28;20168;-60
2022/03/12 10:58:15;;;;;;;9.80;6.38;;;14.30;1.00;;;;;;5114118;28;20172;-60
2022/03/12 11:00:46;;;;;;;8.20;6.80;;;14.50;1.00;;;;;;5114141;28;20199;-61
2022/03/12 11:03:20;;;;;;;10.07;7.13;;;14.50;1.00;;;;;;5112199;28;20173;-60
2022/03/12 11:05:48;;;;;;;9.88;6.78;;;14.60;1.00;;;;;;5114361;28;20149;-61
2022/03/12 11:08:30;;;;;;;12.43;6.68;;;14.50;1.00;;;;;;5112550;28;20202;-60
2022/03/12 11:11:13;;;;;;;10.20;7.22;;;14.70;1.00;;;;;;5112693;28;20183;-61
2022/03/12 11:13:47;;;;;;;8.80;6.38;;;15.00;1.00;;;;;;5114334;28;20153;-61
2022/03/12 11:16:29;;;;;;;8.65;6.60;;;15.40;1.00;;;;;;5114409;28;20156;-61
2022/03/12 11:19:01;;;;;;;9.32;6.82;;;15.40;1.00;;;;;;5114334;28;20191;-61
2022/03/12 11:21:53;;;;;;;14.77;6.50;;;15.50;1.00;;;;;;5113898;28;20227;-61
2022/03/12 11:24:42;;;;;;;8.60;5.93;;;15.20;1.00;;;;;;5113912;28;20288;-61
2022/03/12 11:27:07;;;;;;;9.93;6.47;;;15.10;1.00;;;;;;5114082;28;20157;-61
2022/03/12 11:29:34;;;;;;;8.07;6.70;;;15.30;1.00;;;;;;5113726;28;20196;-62
2022/03/12 11:32:05;;;;;;;7.10;5.95;;;15.30;1.00;;;;;;5114264;28;20165;-61
2022/03/12 11:34:42;;;;;;;9.63;6.28;;;15.30;1.00;;;;;;5113631;28;20152;-62
2022/03/12 11:37:13;;;;;;;9.75;6.10;;;15.30;1.00;;;;;;5114388;28;20509;-61
2022/03/12 11:39:42;;;;;;;8.60;6.47;;;15.30;1.00;;;;;;5113405;28;20216;-61
2022/03/12 11:42:20;;;;;;;8.85;6.10;;;15.40;1.00;;;;;;5114112;28;20571;-61
2022/03/12 11:44:55;;;;;;;8.18;6.28;;;15.30;1.00;;;;;;5113568;28;20168;-61
2022/03/12 11:47:23;;;;;;;10.13;6.10;;;15.50;1.00;;;;;;5114359;28;20196;-66
2022/03/12 11:49:50;;;;;;;8.52;5.68;;;15.80;1.00;;;;;;5114522;28;20189;-68
2022/03/12 11:52:17;;;;;;;10.02;6.55;;;16.20;1.00;;;;;;5114837;28;20183;-67
2022/03/12 11:54:45;;;;;;;7.95;6.25;;;16.20;1.00;;;;;;5113814;28;20252;-61
2022/03/12 11:57:21;;;;;;;13.05;6.43;;;16.20;1.00;;;;;;5113573;28;20209;-61
2022/03/12 11:59:47;;;;;;;8.07;6.07;;;16.00;1.00;;;;;;5112273;28;20674;-61
2022/03/12 12:02:30;;;;;;;8.15;5.90;;;16.20;1.00;;;;;;5113497;28;20193;-61
2022/03/12 12:04:58;;;;;;;7.72;5.63;;;16.40;1.00;;;;;;5113508;28;20696;-61
2022/03/12 12:07:24;;;;;;;8.15;5.53;;;16.70;1.00;;;;;;5113784;28;20194;-62
2022/03/12 12:09:51;;;;;;;7.03;5.50;;;16.60;1.00;;;;;;5113395;28;20204;-62
2022/03/12 12:12:19;;;;;;;9.80;6.68;;;17.10;1.00;;;;;;5113452;28;20209;-61
2022/03/12 12:14:45;;;;;;;8.57;5.90;;;16.90;1.00;;;;;;5116155;28;20168;-61
2022/03/12 12:17:11;;;;;;;7.30;5.30;;;17.30;1.00;;;;;;5117412;28;20606;-62
2022/03/12 12:19:37;;;;;;;6.95;5.15;;;17.50;1.00;;;;;;5116955;27;20192;-62
2022/03/12 12:22:06;;;;;;;8.02;5.38;;;17.80;1.00;;;;;;5117180;28;20173;-62
2022/03/12 12:24:44;;;;;;;7.10;5.70;;;18.20;1.00;;;;;;5117454;28;20164;-65
2022/03/12 12:27:16;;;;;;;7.70;5.10;;;18.50;1.00;;;;;;5117134;28;20518;-62
2022/03/12 12:29:46;;;;;;;7.07;5.13;;;18.80;1.00;;;;;;5115584;28;20236;-63
2022/03/12 12:32:18;;;;;;;6.30;5.00;;;18.90;1.00;;;;;;5116996;27;20157;-64
2022/03/12 12:35:13;;;;;;;7.97;5.20;;;18.80;1.00;;;;;;5115680;28;20184;-63
2022/03/12 12:37:52;;;;;;;7.85;5.18;;;18.50;1.00;;;;;;5117054;28;20163;-62
2022/03/12 12:40:20;;;;;;;7.50;5.22;;;18.60;1.00;;;;;;5116432;28;20204;-63
2022/03/12 12:42:49;;;;;;;3.53;3.20;;;18.50;1.00;;;;;;5116619;28;20165;-63
2022/03/12 12:45:23;;;;;;;4.65;3.75;;;18.30;1.00;;;;;;5116493;28;20168;-63
2022/03/12 12:48:17;;;;;;;6.13;4.03;;;18.00;1.00;;;;;;5116423;28;20540;-62
2022/03/12 12:51:07;;;;;;;5.93;4.60;;;17.80;1.00;;;;;;5116580;27;20240;-62
2022/03/12 12:53:40;;;;;;;5.65;4.50;;;17.10;1.00;;;;;;5116403;28;20171;-63
2022/03/12 12:56:23;;;;;;;7.90;4.68;;;16.40;1.00;;;;;;5115349;28;20255;-63
2022/03/12 12:58:52;;;;;;;5.30;4.80;;;16.10;1.00;;;;;;5116296;28;20204;-62
2022/03/12 13:01:44;;;;;;;5.82;4.22;;;16.00;1.00;;;;;;5114975;28;20211;-63
2022/03/12 13:04:12;;;;;;;6.10;4.90;;;16.20;1.00;;;;;;5115335;28;20152;-63